createdAt,value
2019-02-28T00:04:32.961Z,99174.17
2019-02-28T00:14:37.850Z,99167.27
2019-02-28T00:24:43.221Z,99157.18
2019-02-28T00:34:48.297Z,99137.78
2019-02-28T00:44:53.151Z,99114.57
2019-02-28T00:54:58.223Z,99088.55
2019-02-28T01:05:05.068Z,99063.57
2019-02-28T01:15:13.520Z,99039.71
2019-02-28T01:25:19.146Z,99027.13
2019-02-28T01:35:24.206Z,99006.48
2019-02-28T01:45:29.289Z,98988.72
2019-02-28T01:55:34.381Z,98960.81
2019-02-28T02:05:39.488Z,98922.06
2019-02-28T02:15:44.472Z,98918.90
2019-02-28T02:25:49.691Z,98901.44
2019-02-28T02:35:54.672Z,98876.48
2019-02-28T02:45:59.673Z,98860.42
2019-02-28T02:56:05.412Z,98850.53
2019-02-28T03:06:13.881Z,98840.28
2019-02-28T03:16:17.519Z,98812.20
2019-02-28T03:26:22.512Z,98791.58
2019-02-28T03:36:27.695Z,98763.86
2019-02-28T03:46:32.729Z,98733.47
2019-02-28T03:56:37.923Z,98696.80
2019-02-28T04:06:44.051Z,98685.43
2019-02-28T04:16:53.062Z,98672.90
2019-02-28T04:26:56.773Z,98678.55
2019-02-28T04:37:01.987Z,98660.37
2019-02-28T04:47:07.644Z,98615.61
2019-02-28T04:57:12.520Z,98615.61
2019-02-28T05:07:17.503Z,98589.06
2019-02-28T05:17:22.965Z,98564.36
2019-02-28T05:27:28.026Z,98537.77
2019-02-28T05:37:33.070Z,98529.02
2019-02-28T05:47:46.359Z,98512.03
2019-02-28T05:57:45.026Z,98498.88
2019-02-28T06:07:50.186Z,98470.01
2019-02-28T06:17:55.747Z,98451.73
2019-02-28T06:28:00.914Z,98445.24
2019-02-28T06:38:06.835Z,98421.70
2019-02-28T06:48:12.116Z,98401.17
2019-02-28T06:58:17.181Z,98382.55
2019-02-28T07:08:24.703Z,98359.23
2019-02-28T07:18:29.333Z,98338.31
2019-02-28T07:28:37.395Z,98332.53
2019-02-28T07:38:41.185Z,98333.20
2019-02-28T07:48:46.301Z,98320.52
2019-02-28T07:58:51.401Z,98310.32
2019-02-28T08:08:56.498Z,98316.66
2019-02-28T08:19:01.596Z,98308.52
2019-02-28T08:29:08.041Z,98301.15
2019-02-28T08:39:16.285Z,98293.53
2019-02-28T08:49:21.528Z,98285.39
2019-02-28T08:59:27.182Z,98273.38
2019-02-28T09:09:34.434Z,98263.03
2019-02-28T09:19:39.333Z,98249.52
2019-02-28T09:29:44.631Z,98260.14
2019-02-28T09:39:51.231Z,98260.14
2019-02-28T09:49:56.972Z,98272.20
2019-02-28T10:00:02.048Z,98255.21
2019-02-28T10:10:17.422Z,98258.78
2019-02-28T10:20:27.335Z,98254.11
2019-02-28T10:30:33.357Z,98243.53
2019-02-28T10:40:38.721Z,98232.22
2019-02-28T10:50:44.206Z,98238.89
2019-02-28T11:00:49.686Z,98241.17
2019-02-28T11:10:56.150Z,98220.50
2019-02-28T11:21:01.904Z,98214.68
2019-02-28T11:31:07.506Z,98238.04
2019-02-28T11:41:15.494Z,98227.81
2019-02-28T11:51:20.055Z,98222.39
2019-02-28T12:01:25.368Z,98219.70
2019-02-28T12:11:33.475Z,98222.59
2019-02-28T12:21:38.880Z,98226.91
2019-02-28T12:31:44.528Z,98219.72
2019-02-28T12:41:50.159Z,98223.98
2019-02-28T12:51:55.836Z,98231.28
2019-02-28T13:02:07.419Z,98237.41
2019-02-28T13:12:11.974Z,98236.43
2019-02-28T13:22:18.765Z,98231.34
2019-02-28T13:32:22.148Z,98219.54
2019-02-28T13:42:27.467Z,98219.38
2019-02-28T13:52:32.653Z,98235.98
2019-02-28T14:02:37.786Z,98234.61
2019-02-28T14:12:43.046Z,98231.57
2019-02-28T14:22:48.337Z,98247.47
2019-02-28T14:32:53.958Z,98252.92
2019-02-28T14:42:59.462Z,98275.89
2019-02-28T14:53:06.301Z,98278.52
2019-02-28T15:03:11.309Z,98283.89
2019-02-28T15:13:16.959Z,98295.58
2019-02-28T15:23:23.921Z,98293.36
2019-02-28T15:33:30.514Z,98296.48
2019-02-28T15:43:36.769Z,98301.83
2019-02-28T15:53:42.312Z,98304.28
2019-02-28T16:03:48.399Z,98315.41
2019-02-28T16:13:57.480Z,98328.81
2019-02-28T16:24:05.152Z,98336.62
2019-02-28T16:34:09.931Z,98342.65
2019-02-28T16:44:15.855Z,98359.31
2019-02-28T16:54:22.487Z,98371.14
2019-02-28T17:04:28.999Z,98384.94
2019-02-28T17:14:36.696Z,98403.15
2019-02-28T17:24:45.714Z,98413.97
2019-02-28T17:34:50.018Z,98418.03
2019-02-28T17:44:58.573Z,98432.03
2019-02-28T17:55:36.133Z,98427.80
2019-02-28T18:05:58.211Z,98443.70
2019-02-28T18:16:12.633Z,98462.55
2019-02-28T18:26:39.182Z,98471.21
2019-02-28T18:36:43.395Z,98477.95
2019-02-28T18:46:49.731Z,98487.28
2019-02-28T18:56:56.092Z,98492.45
2019-02-28T19:07:01.868Z,98501.25
2019-02-28T19:17:07.770Z,98504.84
2019-02-28T19:27:13.430Z,98518.36
2019-02-28T19:37:19.057Z,98522.77
2019-02-28T19:47:24.737Z,98525.83
2019-02-28T19:57:30.404Z,98518.41
2019-02-28T20:07:35.991Z,98525.90
2019-02-28T20:17:41.586Z,98551.82
2019-02-28T20:27:47.397Z,98561.52
2019-02-28T20:37:54.311Z,98559.56
2019-02-28T20:48:00.478Z,98573.97
2019-02-28T20:58:06.091Z,98578.37
2019-02-28T21:08:11.826Z,98572.94
2019-02-28T21:18:17.261Z,98589.67
2019-02-28T21:28:22.991Z,98607.20
2019-02-28T21:38:28.486Z,98624.18
2019-02-28T21:48:34.013Z,98627.72
2019-02-28T21:58:40.776Z,98634.23
2019-02-28T22:08:45.944Z,98650.20
2019-02-28T22:18:51.029Z,98654.32
2019-02-28T22:28:56.216Z,98655.36
2019-02-28T22:39:01.433Z,98658.70
2019-02-28T22:49:08.191Z,98669.00
2019-02-28T22:59:13.350Z,98664.90
2019-02-28T23:09:18.944Z,98672.41
2019-02-28T23:19:24.368Z,98675.17
2019-02-28T23:29:29.661Z,98681.93
2019-02-28T23:39:34.887Z,98692.76
2019-02-28T23:49:40.126Z,98693.44
2019-02-28T23:59:46.390Z,98705.03
